EZY49ZD EGKK-LEMG
Flight info
| Callsign | EZY49ZD |
|---|---|
| Flight time | N/A |
| Altitude | 37000 |
| Route | NOVMA L620 SAM M195 MARUK N621 LELNA DCT NOVAN DCT DELOG DCT CRISA N864 VULPE |
| Aircraft | A319/M-SDE2E3FGIJ1RWXYZ/LB1 |
Departure
| Time | 2026-04-19 09:44 |
|---|---|
| Airport | London Gatwick Airport (EGKK) |
Arrival
| Time | N/A |
|---|---|
| Airport | Málaga-Costa del Sol Airport (LEMG) |
| Time | Latitude | Longitude | Altitude | Speed | Heading |
|---|---|---|---|---|---|
| 2026-04-19 09:08 | 51.15594 | -0.17623 | 208 ft | 0 kts | 348° |
| 2026-04-19 09:35 | 51.15583 | -0.17619 | 217 ft | 4 kts | 349° |
| 2026-04-19 09:36 | 51.15556 | -0.17613 | 216 ft | 4 kts | 358° |
| 2026-04-19 09:36 | 51.15530 | -0.17617 | 215 ft | 4 kts | 35° |
| 2026-04-19 09:36 | 51.15521 | -0.17632 | 211 ft | 0 kts | 77° |
| 2026-04-19 09:38 | 51.15521 | -0.17631 | 208 ft | 0 kts | 77° |
| 2026-04-19 09:39 | 51.15525 | -0.17602 | 215 ft | 6 kts | 77° |
| 2026-04-19 09:39 | 51.15538 | -0.17512 | 212 ft | 8 kts | 77° |
| 2026-04-19 09:39 | 51.15521 | -0.17430 | 212 ft | 10 kts | 153° |
| 2026-04-19 09:39 | 51.15449 | -0.17404 | 208 ft | 11 kts | 168° |
| 2026-04-19 09:40 | 51.15362 | -0.17374 | 212 ft | 13 kts | 168° |
| 2026-04-19 09:40 | 51.15274 | -0.17341 | 209 ft | 13 kts | 160° |
| 2026-04-19 09:40 | 51.15199 | -0.17263 | 208 ft | 13 kts | 141° |
| 2026-04-19 09:40 | 51.15186 | -0.17152 | 214 ft | 10 kts | 77° |
| 2026-04-19 09:41 | 51.15202 | -0.17038 | 217 ft | 11 kts | 78° |
| 2026-04-19 09:41 | 51.15216 | -0.16936 | 212 ft | 6 kts | 77° |
| 2026-04-19 09:41 | 51.15218 | -0.16918 | 216 ft | 0 kts | 77° |
| 2026-04-19 09:42 | 51.15221 | -0.16900 | 211 ft | 4 kts | 77° |
| 2026-04-19 09:42 | 51.15214 | -0.16828 | 214 ft | 9 kts | 124° |
| 2026-04-19 09:42 | 51.15156 | -0.16790 | 208 ft | 9 kts | 179° |
| 2026-04-19 09:42 | 51.15114 | -0.16855 | 210 ft | 8 kts | 253° |
| 2026-04-19 09:43 | 51.15112 | -0.16867 | 210 ft | 0 kts | 257° |
| 2026-04-19 09:43 | 51.15104 | -0.16923 | 208 ft | 28 kts | 258° |
| 2026-04-19 09:43 | 51.15005 | -0.17642 | 214 ft | 100 kts | 257° |
| 2026-04-19 09:44 | 51.14814 | -0.19050 | 210 ft | 157 kts | 257° |
| 2026-04-19 09:44 | 51.14551 | -0.20815 | 728 ft | 161 kts | 260° |
| 2026-04-19 09:44 | 51.14314 | -0.22553 | 1487 ft | 163 kts | 263° |
| 2026-04-19 09:44 | 51.14076 | -0.24388 | 1953 ft | 182 kts | 262° |
| 2026-04-19 09:45 | 51.13795 | -0.26502 | 2417 ft | 208 kts | 260° |
| 2026-04-19 09:45 | 51.13472 | -0.28873 | 2865 ft | 231 kts | 261° |
| 2026-04-19 09:45 | 51.13114 | -0.31475 | 3487 ft | 253 kts | 260° |
| 2026-04-19 09:45 | 51.12726 | -0.34259 | 4343 ft | 260 kts | 260° |
| 2026-04-19 09:46 | 51.12326 | -0.37096 | 5400 ft | 262 kts | 259° |
| 2026-04-19 09:46 | 51.11926 | -0.39939 | 6501 ft | 264 kts | 259° |
| 2026-04-19 09:46 | 51.11496 | -0.42799 | 7445 ft | 268 kts | 254° |
| 2026-04-19 09:46 | 51.10707 | -0.45525 | 8367 ft | 273 kts | 246° |
| 2026-04-19 09:47 | 51.09862 | -0.48219 | 9259 ft | 278 kts | 246° |
| 2026-04-19 09:47 | 51.08992 | -0.50991 | 10135 ft | 282 kts | 246° |
| 2026-04-19 09:47 | 51.08108 | -0.53805 | 10932 ft | 286 kts | 247° |
| 2026-04-19 09:47 | 51.07219 | -0.56648 | 11757 ft | 288 kts | 247° |
| 2026-04-19 09:48 | 51.06325 | -0.59518 | 12583 ft | 291 kts | 247° |
| 2026-04-19 09:48 | 51.05476 | -0.62450 | 13412 ft | 292 kts | 254° |
| 2026-04-19 09:48 | 51.04974 | -0.65574 | 14219 ft | 292 kts | 261° |
| 2026-04-19 09:48 | 51.04557 | -0.68714 | 14944 ft | 294 kts | 261° |
| 2026-04-19 09:49 | 51.04132 | -0.71902 | 15680 ft | 296 kts | 261° |
| 2026-04-19 09:49 | 51.03700 | -0.75121 | 16415 ft | 298 kts | 261° |
| 2026-04-19 09:49 | 51.03256 | -0.78430 | 16744 ft | 316 kts | 261° |
| 2026-04-19 09:49 | 51.02788 | -0.81911 | 16954 ft | 334 kts | 261° |
| 2026-04-19 09:50 | 51.02292 | -0.85556 | 17505 ft | 340 kts | 261° |
| 2026-04-19 09:50 | 51.01789 | -0.89249 | 18166 ft | 343 kts | 261° |
| 2026-04-19 09:50 | 51.01281 | -0.92975 | 18820 ft | 346 kts | 261° |
| 2026-04-19 09:50 | 51.01107 | -0.94247 | 19019 ft | 347 kts | 261° |
| 2026-04-19 09:51 | 51.00694 | -0.97272 | 19505 ft | 348 kts | 261° |
| 2026-04-19 09:51 | 51.00183 | -1.01007 | 20095 ft | 351 kts | 261° |
| 2026-04-19 09:51 | 50.99660 | -1.04815 | 20673 ft | 354 kts | 261° |
| 2026-04-19 09:51 | 50.99131 | -1.08656 | 21281 ft | 356 kts | 261° |
| 2026-04-19 09:52 | 50.98605 | -1.12459 | 21872 ft | 359 kts | 261° |
| 2026-04-19 09:52 | 50.98066 | -1.16345 | 22457 ft | 361 kts | 261° |
| 2026-04-19 09:52 | 50.97518 | -1.20266 | 23052 ft | 363 kts | 261° |
| 2026-04-19 09:52 | 50.96968 | -1.24195 | 23622 ft | 366 kts | 261° |
| 2026-04-19 09:53 | 50.96391 | -1.28102 | 24127 ft | 370 kts | 256° |
| 2026-04-19 09:53 | 50.95397 | -1.31901 | 24576 ft | 378 kts | 245° |
| 2026-04-19 09:53 | 50.93870 | -1.35361 | 25014 ft | 387 kts | 233° |
| 2026-04-19 09:53 | 50.91868 | -1.38279 | 25461 ft | 397 kts | 221° |
| 2026-04-19 09:54 | 50.89549 | -1.40733 | 25884 ft | 401 kts | 218° |
| 2026-04-19 09:54 | 50.87236 | -1.43135 | 26295 ft | 404 kts | 219° |
| 2026-04-19 09:54 | 50.85645 | -1.44789 | 26575 ft | 405 kts | 219° |
| 2026-04-19 09:54 | 50.83282 | -1.47247 | 26982 ft | 408 kts | 219° |